Billings, MT (59102)

11:01 PM MDT on September 22, 2014 (GMT -0600)
QTH | Change Station
CLOSE
Current Station
Personal Weather Station
Location: Billings, MT
Elevation: 3228 ft
Nearby Weather Stations

Elev 3228 ft 45.78 °N, 108.57 °W | Updated 27 seconds ago

Scattered Clouds
Scattered Clouds
69.3 °F
Feels Like 69.3 °F
N
2.2
Wind Variable Wind from South
Gusts 5.4 mph

Today
High -- | Low -- °F
--% Chance of Precip.
Yesterday
High -- | Low -- °F
Precip. -- in
7:01 AM 7:11 PM
Waning Crescent, 1% visible
Pressure 29.86 in
Visibility 10.0 miles
Clouds Few 10000 ft
Scattered Clouds 16000 ft
Dew Point 49 °F
Humidity 48%
Rainfall 0.00 in
Snow Depth 0 in , 0 in , 0 in
UV 0 out of 12
Pollen 4.50 out of 12
Air Quality Not available.
Flu Activity Not available.
METAR KBIL 230453Z 22008KT 10SM FEW100 SCT160 20/08 A2994 RMK AO2 SLP111 T02000078

More Conditions Fewer Conditions

Pressure 29.86 in
Visibility 10.0 miles
Clouds Few 10000 ft
Scattered Clouds 16000 ft
Dew Point 49 °F
Humidity 48%
Rainfall 0.00 in
Snow Depth 0 in , 0 in , 0 in
UV 0 out of 12
Pollen 4.50 out of 12
Air Quality Not available.
Flu Activity Not available.
METAR KBIL 230453Z 22008KT 10SM FEW100 SCT160 20/08 A2994 RMK AO2 SLP111 T02000078

More Conditions Fewer Conditions

10-Day Weather Forecast

Almanac

Astronomy

Sep. 22, 2014 Rise Set
Actual Time 7:01 AM MDT 7:11 PM MDT
Civil Twilight 6:31 AM MDT 7:41 PM MDT
Nautical Twilight 5:56 AM MDT 8:16 PM MDT
Astronomical Twilight 5:20 AM MDT 8:52 PM MDT
Moon 5:29 AM MDT (9/22) 6:22 PM MDT (9/22)
Length of Visible Light 13h 09m
Length of Day
12h 10m
Tomorrow will be 3m 12s shorter.
Waning Crescent, 1% of the Moon is Illuminated
Sep 23
Waning Crescent
Sep 24
New
Oct 1
First Quarter
Oct 8
Full
Oct 15
Last Quarter

Yesterday's Extremes

State Highs State Lows

Community

WunderPhotos

Upload Photos

1,755,607 photos uploaded!

Nearby

Snow Depth

Station Depth Elevation
Tizer Basin 0 in 6840 ft
Darkhorse Lake 0 in 8700 ft
South Fork Shields 0 in 8100 ft
Combination 0 in 5600 ft
Lubrecht Flume 0 in 4680 ft

Earthquake Activity

City Distance Mag. Time & Date
No recent earthquake activity has been reported nearby.
Minimum magnitude displayed is 2.5.

Coastal Water Temperatures

Place Temperature
No Stations Reporting

Nearby Weather Stations